createdAt,value
2023-02-13T01:40:13.218Z,5.13
2023-02-13T01:41:13.150Z,5.18
2023-02-13T01:42:13.158Z,5.10
2023-02-13T01:43:13.127Z,5.21
2023-02-13T01:44:13.134Z,5.21
2023-02-13T01:45:13.103Z,5.24
2023-02-13T01:46:13.112Z,5.20
2023-02-13T01:47:13.085Z,5.15
2023-02-13T01:48:13.071Z,5.12
2023-02-13T01:49:13.072Z,5.10
2023-02-13T01:50:13.045Z,5.04
2023-02-13T01:51:18.059Z,5.04
2023-02-13T01:52:13.023Z,5.04
2023-02-13T01:53:13.012Z,5.12
2023-02-13T01:54:13.036Z,5.06
2023-02-13T01:55:12.990Z,4.96
2023-02-13T01:56:13.006Z,5.02
2023-02-13T01:57:12.967Z,4.94
2023-02-13T01:58:12.956Z,4.97
2023-02-13T01:59:12.966Z,4.96
2023-02-13T02:00:12.937Z,5.04
2023-02-13T02:01:12.927Z,5.00
2023-02-13T02:02:18.047Z,4.86
2023-02-13T02:03:12.898Z,4.97
2023-02-13T02:04:12.909Z,5.02
2023-02-13T02:05:12.881Z,4.92
2023-02-13T02:06:12.867Z,5.06
2023-02-13T02:07:12.854Z,5.06
2023-02-13T02:08:12.845Z,4.99
2023-02-13T02:09:12.854Z,5.04
2023-02-13T02:10:12.836Z,5.07
2023-02-13T02:11:12.828Z,5.07
2023-02-13T02:12:12.825Z,5.04
2023-02-13T02:13:17.813Z,5.09
2023-02-13T02:14:12.778Z,5.00
2023-02-13T02:15:12.791Z,4.99
2023-02-13T02:16:12.841Z,5.02
2023-02-13T02:17:12.801Z,5.00
2023-02-13T02:18:12.730Z,4.97
2023-02-13T02:19:12.730Z,4.99
2023-02-13T02:20:12.722Z,4.91
2023-02-13T02:21:12.704Z,4.96
2023-02-13T02:22:12.697Z,4.91
2023-02-13T02:23:12.685Z,4.84
2023-02-13T02:24:17.690Z,4.84
2023-02-13T02:25:12.670Z,4.88
2023-02-13T02:26:12.648Z,4.78
2023-02-13T02:27:12.644Z,4.78
2023-02-13T02:28:12.646Z,4.75
2023-02-13T02:29:12.613Z,4.72
2023-02-13T02:30:12.611Z,4.66
2023-02-13T02:31:12.746Z,4.73
2023-02-13T02:32:12.578Z,4.66
2023-02-13T02:33:12.573Z,4.67
2023-02-13T02:34:12.558Z,4.65
2023-02-13T02:35:17.585Z,4.69
2023-02-13T02:36:12.530Z,4.59
2023-02-13T02:37:12.525Z,4.60
2023-02-13T02:38:12.530Z,4.55
2023-02-13T02:39:12.501Z,4.54
2023-02-13T02:40:12.505Z,4.54
2023-02-13T02:41:12.477Z,4.60
2023-02-13T02:42:12.481Z,4.44
2023-02-13T02:43:12.457Z,4.44
2023-02-13T02:48:12.700Z,4.29
2023-02-13T02:49:12.376Z,4.30
2023-02-13T02:50:12.415Z,4.27
2023-02-13T02:51:12.376Z,4.20
2023-02-13T02:52:12.356Z,4.26
2023-02-13T02:53:12.436Z,4.20
2023-02-13T02:54:12.327Z,4.20
2023-02-13T02:55:12.304Z,4.15
2023-02-13T02:56:12.326Z,4.20
2023-02-13T02:57:12.294Z,4.09
2023-02-13T02:58:12.359Z,4.05
2023-02-13T02:59:17.286Z,4.06
2023-02-13T03:00:12.530Z,4.11
2023-02-13T03:01:12.438Z,3.98
2023-02-13T03:02:12.229Z,4.04
2023-02-13T03:03:12.219Z,3.88
2023-02-13T03:04:12.331Z,3.94
2023-02-13T03:05:12.190Z,3.91
2023-02-13T03:06:12.212Z,3.91
2023-02-13T03:07:12.175Z,3.93
2023-02-13T03:08:12.163Z,3.91
2023-02-13T03:09:12.156Z,3.88
2023-02-13T03:10:17.154Z,3.87
2023-02-13T03:11:12.135Z,3.83
2023-02-13T03:12:12.195Z,3.79
2023-02-13T03:13:12.108Z,3.73
2023-02-13T03:14:12.153Z,3.78
2023-02-13T03:15:12.083Z,3.80
2023-02-13T03:16:12.132Z,3.78
2023-02-13T03:17:12.054Z,3.78
2023-02-13T03:18:12.047Z,3.76
2023-02-13T03:19:12.037Z,3.79
2023-02-13T03:20:12.066Z,3.83
2023-02-13T03:21:17.609Z,3.75
2023-02-13T03:22:12.009Z,3.72
2023-02-13T03:23:11.985Z,3.69
2023-02-13T03:24:11.982Z,3.73
2023-02-13T03:25:11.965Z,3.75
2023-02-13T03:26:11.954Z,3.78
2023-02-13T03:27:11.956Z,3.78
2023-02-13T03:28:12.013Z,3.75
2023-02-13T03:29:11.920Z,3.76
2023-02-13T03:30:11.961Z,3.70
2023-02-13T03:31:11.973Z,3.72
2023-02-13T03:32:23.937Z,3.78
2023-02-13T03:33:11.877Z,3.76
2023-02-13T03:34:11.867Z,3.83
2023-02-13T03:35:11.857Z,3.87
2023-02-13T03:36:11.863Z,3.90
2023-02-13T03:37:11.860Z,3.94
2023-02-13T03:38:11.816Z,3.98
2023-02-13T03:39:11.802Z,3.87
2023-02-13T03:40:11.793Z,3.97
2023-02-13T03:41:11.853Z,3.97
2023-02-13T03:42:11.793Z,4.00
2023-02-13T03:43:16.792Z,4.02
2023-02-13T03:44:11.761Z,4.02
2023-02-13T03:45:11.743Z,3.98
2023-02-13T03:46:11.822Z,4.02
2023-02-13T03:47:11.742Z,4.04
2023-02-13T03:48:11.716Z,3.98
2023-02-13T03:49:11.692Z,4.00
2023-02-13T03:50:11.680Z,4.11
2023-02-13T03:51:11.669Z,4.06
2023-02-13T03:52:11.693Z,3.98
2023-02-13T03:53:11.657Z,4.00
2023-02-13T03:54:16.657Z,3.91
2023-02-13T03:55:11.622Z,3.86
2023-02-13T03:56:11.635Z,3.87
2023-02-13T03:57:11.599Z,3.93
2023-02-13T03:58:11.612Z,3.91
2023-02-13T03:59:11.577Z,3.93
2023-02-13T04:00:11.569Z,3.88
2023-02-13T04:01:11.584Z,3.97
2023-02-13T04:02:11.637Z,3.83
2023-02-13T04:03:11.542Z,3.78
2023-02-13T04:04:11.522Z,3.75
2023-02-13T04:05:16.545Z,3.73
2023-02-13T04:06:11.512Z,3.72
2023-02-13T04:07:11.489Z,3.75
2023-02-13T04:08:11.518Z,3.86
2023-02-13T04:09:11.469Z,3.83
2023-02-13T04:10:11.454Z,3.72
2023-02-13T04:11:11.456Z,3.76
2023-02-13T04:12:11.438Z,3.76
2023-02-13T04:13:11.438Z,3.80
2023-02-13T04:14:11.413Z,3.72
2023-02-13T04:15:11.394Z,3.80
2023-02-13T04:16:16.439Z,3.75
2023-02-13T04:17:11.380Z,3.78
2023-02-13T04:18:11.381Z,3.86
2023-02-13T04:19:11.362Z,3.69
2023-02-13T04:20:11.342Z,3.72
2023-02-13T04:21:11.330Z,3.68
2023-02-13T04:22:11.316Z,3.55
2023-02-13T04:23:11.333Z,3.54
2023-02-13T04:24:11.322Z,3.58
2023-02-13T04:25:11.288Z,3.61
2023-02-13T04:26:11.320Z,3.58
2023-02-13T04:27:16.285Z,3.57
2023-02-13T04:28:11.283Z,3.52
2023-02-13T04:29:11.245Z,3.47
2023-02-13T04:30:11.242Z,3.48
2023-02-13T04:31:11.387Z,3.45
2023-02-13T04:32:11.222Z,3.45
2023-02-13T04:33:11.215Z,3.32
2023-02-13T04:34:11.217Z,3.48
2023-02-13T04:35:11.174Z,3.36
2023-02-13T04:36:11.183Z,3.36
2023-02-13T04:37:11.150Z,3.48
2023-02-13T04:38:16.191Z,3.40
2023-02-13T04:39:11.216Z,3.33
2023-02-13T04:40:11.140Z,3.40
2023-02-13T04:41:11.117Z,3.35
2023-02-13T04:42:11.093Z,3.35
2023-02-13T04:43:11.126Z,3.23
2023-02-13T04:44:11.076Z,3.33
2023-02-13T04:45:11.061Z,3.24
2023-02-13T04:46:11.090Z,3.26
2023-02-13T04:47:11.042Z,3.33
2023-02-13T04:48:11.039Z,3.26
2023-02-13T04:49:16.039Z,3.26
2023-02-13T04:50:11.011Z,3.23
2023-02-13T04:51:10.991Z,3.26
2023-02-13T04:52:10.984Z,3.31
2023-02-13T04:53:10.991Z,3.31
2023-02-13T04:54:10.960Z,3.33
2023-02-13T04:55:10.949Z,3.36
2023-02-13T04:56:10.960Z,3.35
2023-02-13T04:57:10.925Z,3.21
2023-02-13T04:58:10.921Z,3.32
2023-02-13T04:59:10.914Z,3.36
2023-02-13T05:00:15.915Z,3.23
2023-02-13T05:01:10.915Z,3.31
2023-02-13T05:02:10.921Z,3.31
2023-02-13T05:03:10.860Z,3.29
2023-02-13T05:04:10.895Z,3.28
2023-02-13T05:05:10.836Z,3.31
2023-02-13T05:06:10.823Z,3.20
2023-02-13T05:07:10.815Z,3.29
2023-02-13T05:08:10.868Z,3.17
2023-02-13T05:09:11.022Z,3.29
2023-02-13T05:10:10.783Z,3.26
2023-02-13T05:11:15.808Z,3.24
2023-02-13T05:12:10.757Z,3.18
2023-02-13T05:13:10.765Z,3.18
2023-02-13T05:14:10.739Z,3.24
2023-02-13T05:15:10.731Z,3.23
2023-02-13T05:16:10.822Z,3.29
2023-02-13T05:17:10.692Z,3.32
2023-02-13T05:18:10.692Z,3.26
2023-02-13T05:19:10.682Z,3.28
2023-02-13T05:20:10.660Z,3.18
2023-02-13T05:21:10.657Z,3.15
2023-02-13T05:22:15.666Z,3.08
2023-02-13T05:23:10.642Z,3.23
2023-02-13T05:24:10.625Z,3.21
2023-02-13T05:25:10.615Z,3.21
2023-02-13T05:26:10.594Z,3.21
2023-02-13T05:27:10.607Z,3.20
2023-02-13T05:28:10.647Z,3.18
2023-02-13T05:29:10.598Z,3.20
2023-02-13T05:30:10.543Z,3.21
2023-02-13T05:31:10.659Z,3.21
2023-02-13T05:32:10.566Z,3.20
2023-02-13T05:33:15.551Z,3.17
2023-02-13T05:34:10.519Z,3.17
2023-02-13T05:35:10.490Z,3.13
2023-02-13T05:36:10.491Z,3.08
2023-02-13T05:37:10.469Z,3.10
2023-02-13T05:38:10.462Z,3.17
2023-02-13T05:39:10.457Z,3.14
2023-02-13T05:40:10.468Z,3.15
2023-02-13T05:41:10.431Z,3.05
2023-02-13T05:42:10.430Z,3.06
2023-02-13T05:43:10.431Z,3.02
2023-02-13T05:44:15.425Z,3.05
2023-02-13T05:45:10.380Z,3.10
2023-02-13T05:46:10.432Z,3.11
2023-02-13T05:47:10.367Z,3.08
2023-02-13T05:48:10.349Z,3.05
2023-02-13T05:49:10.365Z,3.08
2023-02-13T05:50:10.448Z,3.03
2023-02-13T05:51:10.313Z,3.11
2023-02-13T05:52:10.312Z,3.06
2023-02-13T05:53:10.287Z,3.10
2023-02-13T05:54:10.281Z,3.13
2023-02-13T05:55:15.299Z,3.05
2023-02-13T05:56:10.260Z,3.02
2023-02-13T05:57:10.257Z,2.95
2023-02-13T05:58:10.232Z,2.96
2023-02-13T05:59:10.243Z,2.87
2023-02-13T06:00:10.262Z,2.90
2023-02-13T06:01:10.207Z,2.97
2023-02-13T06:02:10.189Z,2.97
2023-02-13T06:03:10.177Z,2.85
2023-02-13T06:04:10.256Z,2.93
2023-02-13T06:05:10.159Z,2.99
2023-02-13T06:06:15.163Z,2.93
2023-02-13T06:07:10.125Z,2.77
2023-02-13T06:08:10.119Z,2.92
2023-02-13T06:09:10.103Z,2.77
2023-02-13T06:10:10.103Z,2.79
2023-02-13T06:11:10.088Z,2.77
2023-02-13T06:12:10.067Z,2.77
2023-02-13T06:13:10.066Z,2.79
2023-02-13T06:14:10.075Z,2.81
2023-02-13T06:15:10.109Z,2.84
2023-02-13T06:16:10.092Z,2.81
2023-02-13T06:17:15.034Z,2.79
2023-02-13T06:18:10.004Z,2.82
2023-02-13T06:19:09.996Z,2.78
2023-02-13T06:20:10.014Z,2.79
2023-02-13T06:21:09.970Z,2.82
2023-02-13T06:22:09.951Z,2.82
2023-02-13T06:23:09.957Z,2.75
2023-02-13T06:24:09.928Z,2.59
2023-02-13T06:25:09.936Z,2.61
2023-02-13T06:26:09.907Z,2.61
2023-02-13T06:27:09.896Z,2.59
2023-02-13T06:28:15.017Z,2.54
2023-02-13T06:29:09.874Z,2.57
2023-02-13T06:30:09.882Z,2.56
2023-02-13T06:31:09.995Z,2.60
2023-02-13T06:32:09.837Z,2.56
2023-02-13T06:33:09.829Z,2.59
2023-02-13T06:34:09.846Z,2.56
2023-02-13T06:35:09.826Z,2.60
2023-02-13T06:36:09.813Z,2.61
2023-02-13T06:37:09.794Z,2.61
2023-02-13T06:38:09.772Z,2.57
2023-02-13T06:39:14.799Z,2.49
2023-02-13T06:40:09.785Z,2.52
2023-02-13T06:41:09.743Z,2.49
2023-02-13T06:42:09.726Z,2.36
2023-02-13T06:43:09.779Z,2.39
2023-02-13T06:44:09.705Z,2.46
2023-02-13T06:45:09.777Z,2.38
2023-02-13T06:46:09.769Z,2.45
2023-02-13T06:47:09.700Z,2.52
2023-02-13T06:48:09.659Z,2.53
2023-02-13T06:49:09.684Z,2.46
2023-02-13T06:50:14.724Z,2.42
2023-02-13T06:51:09.626Z,2.48
2023-02-13T06:52:09.625Z,2.54
2023-02-13T06:53:09.630Z,2.56
2023-02-13T06:54:09.592Z,2.42
2023-02-13T06:55:09.608Z,2.41
2023-02-13T06:56:09.569Z,2.38
2023-02-13T06:57:09.556Z,2.35
2023-02-13T06:58:09.551Z,2.36
2023-02-13T06:59:09.549Z,2.30
2023-02-13T07:00:09.538Z,2.39
2023-02-13T07:01:14.586Z,2.41
2023-02-13T07:02:09.499Z,2.39
2023-02-13T07:03:09.650Z,2.46
2023-02-13T07:04:09.490Z,2.39
2023-02-13T07:05:09.487Z,2.59
2023-02-13T07:06:09.496Z,2.42
2023-02-13T07:07:09.454Z,2.39
2023-02-13T07:08:09.443Z,2.56
2023-02-13T07:09:09.438Z,2.57
2023-02-13T07:10:09.433Z,2.61
2023-02-13T07:11:09.401Z,2.53
2023-02-13T07:12:14.410Z,2.60
2023-02-13T07:13:09.384Z,2.56
2023-02-13T07:14:09.377Z,2.39
2023-02-13T07:15:09.367Z,2.46
2023-02-13T07:16:09.385Z,2.36
2023-02-13T07:17:09.335Z,2.43
2023-02-13T07:18:09.326Z,2.48
2023-02-13T07:19:09.338Z,2.59
2023-02-13T07:20:09.313Z,2.53
2023-02-13T07:21:09.316Z,2.49
2023-02-13T07:22:09.276Z,2.57
2023-02-13T07:23:14.293Z,2.45
2023-02-13T07:24:09.257Z,2.49
2023-02-13T07:25:09.295Z,2.57
2023-02-13T07:26:09.331Z,2.56
2023-02-13T07:27:09.238Z,2.56
2023-02-13T07:28:09.315Z,2.61
2023-02-13T07:29:11.814Z,2.57
2023-02-13T07:30:09.213Z,2.57
2023-02-13T07:31:09.444Z,2.56
2023-02-13T07:32:09.264Z,2.57
2023-02-13T07:33:09.179Z,2.56
2023-02-13T07:34:14.187Z,2.64
2023-02-13T07:35:09.147Z,2.59
2023-02-13T07:36:09.161Z,2.75
2023-02-13T07:37:09.109Z,2.72
2023-02-13T07:38:09.712Z,2.71
2023-02-13T07:39:09.105Z,2.71
2023-02-13T07:40:09.095Z,2.71
2023-02-13T07:41:09.104Z,2.71
2023-02-13T07:42:09.052Z,2.77
2023-02-13T07:43:09.044Z,2.66
2023-02-13T07:44:09.066Z,2.78
2023-02-13T07:45:14.058Z,2.87
2023-02-13T07:46:09.020Z,2.81
2023-02-13T07:47:09.117Z,2.92
2023-02-13T07:48:09.015Z,2.87
2023-02-13T07:49:08.983Z,2.93
2023-02-13T07:50:09.006Z,2.93
2023-02-13T07:51:08.956Z,2.95
2023-02-13T07:52:08.988Z,3.03
2023-02-13T07:53:08.956Z,3.11
2023-02-13T07:54:08.956Z,3.06
2023-02-13T07:55:08.915Z,3.08
2023-02-13T07:56:13.934Z,3.17
2023-02-13T07:57:08.923Z,3.14
2023-02-13T07:58:08.884Z,3.17
2023-02-13T07:59:08.865Z,3.18
2023-02-13T08:00:09.058Z,3.23
2023-02-13T08:01:08.882Z,3.21
2023-02-13T08:02:08.938Z,3.21
2023-02-13T08:03:08.817Z,3.26
2023-02-13T08:04:08.900Z,3.35
2023-02-13T08:05:08.796Z,3.42
2023-02-13T08:06:08.858Z,3.32
2023-02-13T08:07:13.808Z,3.31
2023-02-13T08:08:08.761Z,3.35
2023-02-13T08:09:08.829Z,3.35
2023-02-13T08:10:08.738Z,3.47
2023-02-13T08:11:08.768Z,3.55
2023-02-13T08:12:08.727Z,3.54
2023-02-13T08:13:08.705Z,3.54
2023-02-13T08:14:08.693Z,3.48
2023-02-13T08:15:08.741Z,3.51
2023-02-13T08:16:08.725Z,3.54
2023-02-13T08:17:08.729Z,3.54
2023-02-13T08:18:13.700Z,3.55
2023-02-13T08:19:08.640Z,3.52
2023-02-13T08:20:08.623Z,3.61
2023-02-13T08:21:08.632Z,3.62
2023-02-13T08:22:08.826Z,3.69
2023-02-13T08:23:08.610Z,3.73
2023-02-13T08:24:08.578Z,3.76
2023-02-13T08:25:08.583Z,3.97
2023-02-13T08:26:08.561Z,3.88
2023-02-13T08:27:08.582Z,3.98
2023-02-13T08:28:08.568Z,4.14
2023-02-13T08:29:13.541Z,4.12
2023-02-13T08:30:08.518Z,4.22
2023-02-13T08:31:10.784Z,4.20
2023-02-13T08:32:08.571Z,4.18
2023-02-13T08:33:08.477Z,4.27
2023-02-13T08:34:08.469Z,4.36
2023-02-13T08:35:08.452Z,4.29
2023-02-13T08:36:08.455Z,4.30
2023-02-13T08:37:08.425Z,4.30
2023-02-13T08:38:08.440Z,4.33
2023-02-13T08:39:08.405Z,4.33
2023-02-13T08:40:13.418Z,4.45
2023-02-13T08:41:08.392Z,4.45
2023-02-13T08:42:08.378Z,4.47
2023-02-13T08:43:08.442Z,4.48
2023-02-13T08:44:08.352Z,4.34
2023-02-13T08:45:08.364Z,4.40
2023-02-13T08:46:08.459Z,4.47
2023-02-13T08:47:08.320Z,4.42
2023-02-13T08:48:08.323Z,4.59
2023-02-13T08:49:08.301Z,4.50
2023-02-13T08:50:08.300Z,4.69
2023-02-13T08:51:13.301Z,4.73
2023-02-13T08:52:08.267Z,4.77
2023-02-13T08:53:08.257Z,4.89
2023-02-13T08:54:08.261Z,4.84
2023-02-13T08:55:08.232Z,4.91
2023-02-13T08:56:08.246Z,4.91
2023-02-13T08:57:08.217Z,4.96
2023-02-13T08:58:08.229Z,5.00
2023-02-13T08:59:08.247Z,5.06
2023-02-13T09:00:08.178Z,5.09
2023-02-13T09:01:08.292Z,5.18
2023-02-13T09:02:13.186Z,5.22
2023-02-13T09:03:10.097Z,5.30
2023-02-13T09:04:08.132Z,5.30
2023-02-13T09:05:08.115Z,5.30
2023-02-13T09:06:08.133Z,5.40
2023-02-13T09:07:08.114Z,5.54
2023-02-13T09:08:08.094Z,5.65
2023-02-13T09:09:08.069Z,5.94
2023-02-13T09:10:08.170Z,6.37
2023-02-13T09:11:08.093Z,6.79
2023-02-13T09:12:08.046Z,7.12
2023-02-13T09:13:13.195Z,7.34
2023-02-13T09:14:08.033Z,7.50
2023-02-13T09:15:08.302Z,7.67
2023-02-13T09:16:08.404Z,7.71
2023-02-13T09:17:08.038Z,7.69
2023-02-13T09:18:07.995Z,7.53
2023-02-13T09:19:07.957Z,7.28
2023-02-13T09:20:07.953Z,7.24
2023-02-13T09:21:07.949Z,7.25
2023-02-13T09:22:07.938Z,7.25
2023-02-13T09:23:07.995Z,7.10
2023-02-13T09:24:12.924Z,6.97
2023-02-13T09:25:07.912Z,7.09
2023-02-13T09:26:07.922Z,7.64
2023-02-13T09:27:07.888Z,7.85
2023-02-13T09:28:08.020Z,7.98
2023-02-13T09:29:07.854Z,8.26
2023-02-13T09:30:07.846Z,8.53
2023-02-13T09:31:08.006Z,8.89
2023-02-13T09:32:07.899Z,9.02
2023-02-13T09:33:07.800Z,9.14
2023-02-13T09:34:07.797Z,9.38
2023-02-13T09:35:12.804Z,9.72
2023-02-13T09:36:07.781Z,10.18
2023-02-13T09:37:07.792Z,10.42
2023-02-13T09:38:07.750Z,10.81
2023-02-13T09:39:07.750Z,10.88
2023-02-13T09:40:07.757Z,11.17
2023-02-13T09:41:07.824Z,11.46
2023-02-13T09:42:07.787Z,11.88
2023-02-13T09:43:07.707Z,11.96
2023-02-13T09:44:07.694Z,11.67
2023-02-13T09:45:07.679Z,11.09
2023-02-13T09:46:12.762Z,10.51
2023-02-13T09:47:07.656Z,10.29
2023-02-13T09:48:07.656Z,10.15
2023-02-13T09:49:07.714Z,10.20
2023-02-13T09:50:07.617Z,10.15
2023-02-13T09:51:07.604Z,10.27
2023-02-13T09:52:07.599Z,10.12
2023-02-13T09:53:07.584Z,9.69
2023-02-13T09:54:07.591Z,9.72
2023-02-13T09:55:07.564Z,9.89
2023-02-13T09:56:07.546Z,9.99
2023-02-13T09:57:12.586Z,9.83
2023-02-13T09:58:07.522Z,9.91
2023-02-13T09:59:07.507Z,9.57
2023-02-13T10:00:07.569Z,9.33
2023-02-13T10:01:07.599Z,9.01
2023-02-13T10:02:07.532Z,8.86
2023-02-13T10:03:07.469Z,9.08
2023-02-13T10:04:07.448Z,9.58
2023-02-13T10:05:07.510Z,9.86
2023-02-13T10:06:07.440Z,10.25
2023-02-13T10:07:07.433Z,9.83
2023-02-13T10:08:12.443Z,9.51
2023-02-13T10:09:07.413Z,9.91
2023-02-13T10:10:07.384Z,10.41
2023-02-13T10:11:07.373Z,10.17
2023-02-13T10:12:07.369Z,9.91
2023-02-13T10:13:07.442Z,9.48
2023-02-13T10:14:07.336Z,9.18
2023-02-13T10:15:07.357Z,8.87
2023-02-13T10:16:07.392Z,9.01
2023-02-13T10:17:07.330Z,9.61
2023-02-13T10:18:07.303Z,10.12
2023-02-13T10:19:12.307Z,10.38
2023-02-13T10:20:07.275Z,10.60
2023-02-13T10:21:07.259Z,10.70
2023-02-13T10:22:07.254Z,10.84
2023-02-13T10:25:42.847Z,10.68
2023-02-13T10:26:42.829Z,10.38
2023-02-13T10:27:42.747Z,10.36
2023-02-13T10:28:42.847Z,10.34
2023-02-13T10:29:42.739Z,10.17
2023-02-13T10:30:42.755Z,10.32
2023-02-13T10:31:42.843Z,10.27
2023-02-13T10:32:42.688Z,10.33
2023-02-13T10:33:42.695Z,10.76
2023-02-13T10:34:42.688Z,11.04
2023-02-13T10:35:42.658Z,11.37
2023-02-13T10:36:47.703Z,11.70
2023-02-13T10:37:42.640Z,11.90
2023-02-13T10:38:42.673Z,11.86
2023-02-13T10:39:42.617Z,11.35
2023-02-13T10:40:42.604Z,11.11
2023-02-13T10:41:42.590Z,10.99
2023-02-13T10:42:42.598Z,11.36
2023-02-13T10:43:42.596Z,11.49
2023-02-13T10:44:42.618Z,11.78
2023-02-13T10:45:42.556Z,11.86
2023-02-13T10:46:42.614Z,12.27
2023-02-13T10:47:47.563Z,12.64
2023-02-13T10:48:42.531Z,13.01
2023-02-13T10:49:42.532Z,12.47
2023-02-13T10:50:42.489Z,11.91
2023-02-13T10:51:42.479Z,11.28
2023-02-13T10:52:42.466Z,10.85
2023-02-13T10:53:42.477Z,10.67
2023-02-13T10:54:42.464Z,10.78
2023-02-13T10:55:42.433Z,10.99
2023-02-13T10:56:42.424Z,11.17
2023-02-13T10:57:42.413Z,11.15
2023-02-13T10:58:47.460Z,11.14
2023-02-13T10:59:42.394Z,11.06
2023-02-13T11:00:43.307Z,11.04
2023-02-13T11:01:42.422Z,10.91
2023-02-13T11:02:42.364Z,10.66
2023-02-13T11:03:42.352Z,10.56
2023-02-13T11:04:42.422Z,10.55
2023-02-13T11:05:42.326Z,10.42
2023-02-13T11:06:42.309Z,10.51
2023-02-13T11:07:42.307Z,10.55
2023-02-13T11:08:42.283Z,10.64
2023-02-13T11:09:47.314Z,10.86
2023-02-13T11:10:42.287Z,10.86
2023-02-13T11:11:42.292Z,10.56
2023-02-13T11:12:42.242Z,10.22
2023-02-13T11:13:42.228Z,10.22
2023-02-13T11:14:42.265Z,10.42
2023-02-13T11:15:42.241Z,10.55
2023-02-13T11:16:42.218Z,10.55
2023-02-13T11:17:42.192Z,10.48
2023-02-13T11:18:42.172Z,10.51
2023-02-13T11:19:42.172Z,10.68
2023-02-13T11:20:47.169Z,10.85
2023-02-13T11:21:42.138Z,11.04
2023-02-13T11:22:42.140Z,11.11
2023-02-13T11:23:42.119Z,11.15
2023-02-13T11:24:42.119Z,11.19
2023-02-13T11:25:42.096Z,11.07
2023-02-13T11:26:42.078Z,10.97
2023-02-13T11:27:42.084Z,11.00
2023-02-13T11:28:42.126Z,10.76
2023-02-13T11:29:42.067Z,10.79
2023-02-13T11:30:42.086Z,10.91
2023-02-13T11:31:47.173Z,11.27
2023-02-13T11:32:42.037Z,11.64
2023-02-13T11:33:42.022Z,11.79
2023-02-13T11:34:42.002Z,11.58
2023-02-13T11:35:41.984Z,11.57
2023-02-13T11:36:41.971Z,11.58
2023-02-13T11:37:41.978Z,11.85
2023-02-13T11:38:41.947Z,12.01
2023-02-13T11:39:41.946Z,12.02
2023-02-13T11:40:41.923Z,12.05
2023-02-13T11:41:41.921Z,12.04
2023-02-13T11:42:46.926Z,12.17
2023-02-13T11:43:41.901Z,12.10
2023-02-13T11:44:41.899Z,12.12
2023-02-13T11:45:41.904Z,12.37
2023-02-13T11:46:41.932Z,12.42
2023-02-13T11:47:41.894Z,12.49
2023-02-13T11:48:41.866Z,12.35
2023-02-13T11:49:41.870Z,12.02
2023-02-13T11:50:41.829Z,11.65
2023-02-13T11:51:41.803Z,11.49
2023-02-13T11:52:41.792Z,11.51
2023-02-13T11:53:46.804Z,11.32
2023-02-13T11:54:41.773Z,11.69
2023-02-13T11:55:41.769Z,11.91
2023-02-13T11:56:55.687Z,11.76
2023-02-13T11:57:42.736Z,11.85
2023-02-13T11:58:42.099Z,11.95
2023-02-13T11:59:41.720Z,11.75
2023-02-13T12:00:41.839Z,11.85
2023-02-13T12:01:41.695Z,12.01
2023-02-13T12:02:41.795Z,12.39
2023-02-13T12:03:41.775Z,12.35
2023-02-13T12:04:46.694Z,12.42
2023-02-13T12:05:41.663Z,12.23
2023-02-13T12:06:41.653Z,12.13
2023-02-13T12:07:41.634Z,12.32
2023-02-13T12:08:41.612Z,12.56
2023-02-13T12:09:41.635Z,12.85
2023-02-13T12:10:41.627Z,13.10
2023-02-13T12:11:41.657Z,13.55
2023-02-13T12:12:41.588Z,13.96
2023-02-13T12:13:41.565Z,14.24
2023-02-13T12:14:41.549Z,14.46
2023-02-13T12:15:46.590Z,14.43
2023-02-13T12:16:41.625Z,14.12
2023-02-13T12:17:41.515Z,13.99
2023-02-13T12:18:41.504Z,13.84
2023-02-13T12:19:41.602Z,13.78
2023-02-13T12:20:41.493Z,13.77
2023-02-13T12:21:41.480Z,13.96
2023-02-13T12:22:41.460Z,13.73
2023-02-13T12:23:41.449Z,13.63
2023-02-13T12:24:41.436Z,13.96
2023-02-13T12:25:41.462Z,14.10
2023-02-13T12:26:46.452Z,14.07
2023-02-13T12:27:41.404Z,14.18
2023-02-13T12:28:41.405Z,14.18
2023-02-13T12:29:41.427Z,14.32
2023-02-13T12:30:41.391Z,14.43
2023-02-13T12:31:41.449Z,14.75
2023-02-13T12:32:41.408Z,14.84
2023-02-13T12:33:41.347Z,14.17
2023-02-13T12:34:41.323Z,13.22
2023-02-13T12:35:41.338Z,12.64
2023-02-13T12:36:41.319Z,12.31
2023-02-13T12:37:46.326Z,11.91
2023-02-13T12:38:41.279Z,11.98
2023-02-13T12:39:41.272Z,12.20
2023-02-13T12:40:41.256Z,12.41
2023-02-13T12:41:41.261Z,12.67
2023-02-13T12:42:41.230Z,13.17
2023-02-13T12:43:41.223Z,13.57
2023-02-13T12:44:41.229Z,13.84
2023-02-13T12:45:41.278Z,13.75
2023-02-13T12:46:41.200Z,14.35
2023-02-13T12:47:41.184Z,15.01
2023-02-13T12:48:46.189Z,15.67
2023-02-13T12:49:41.154Z,15.92
2023-02-13T12:50:41.145Z,16.04
2023-02-13T12:51:41.187Z,16.11
2023-02-13T12:52:41.140Z,16.11
2023-02-13T12:53:41.110Z,16.25
2023-02-13T12:54:41.135Z,16.00
2023-02-13T12:55:41.088Z,15.53
2023-02-13T12:56:41.079Z,15.13
2023-02-13T12:57:41.079Z,15.34
2023-02-13T12:58:41.057Z,15.56
2023-02-13T12:59:46.066Z,15.82
2023-02-13T13:00:41.050Z,16.09
2023-02-13T13:01:41.129Z,16.45
2023-02-13T13:02:41.099Z,16.50
2023-02-13T13:03:40.997Z,16.60
2023-02-13T13:04:40.986Z,16.52
2023-02-13T13:05:41.906Z,16.11
2023-02-13T13:06:40.982Z,16.01
2023-02-13T13:07:40.991Z,15.87
2023-02-13T13:08:40.948Z,16.00
2023-02-13T13:09:40.935Z,16.21
2023-02-13T13:10:45.950Z,16.23
2023-02-13T13:11:40.914Z,16.28
2023-02-13T13:12:40.914Z,16.27
2023-02-13T13:13:40.898Z,16.71
2023-02-13T13:14:40.892Z,17.14
2023-02-13T13:15:40.870Z,17.49
2023-02-13T13:16:40.926Z,17.58
2023-02-13T13:17:40.865Z,17.87
2023-02-13T13:18:40.836Z,18.02
2023-02-13T13:19:40.823Z,18.33
2023-02-13T13:20:40.816Z,18.45
2023-02-13T13:21:45.826Z,18.51
2023-02-13T13:22:40.796Z,17.89
2023-02-13T13:23:40.835Z,16.81
2023-02-13T13:24:40.773Z,15.89
2023-02-13T13:25:40.762Z,15.36
2023-02-13T13:26:40.746Z,15.16
2023-02-13T13:27:40.735Z,14.55
2023-02-13T13:28:40.738Z,14.35
2023-02-13T13:29:40.788Z,14.09
2023-02-13T13:30:40.757Z,13.92
2023-02-13T13:31:40.814Z,13.60
2023-02-13T13:32:45.706Z,13.19
2023-02-13T13:33:40.676Z,13.08
2023-02-13T13:34:40.663Z,13.00
2023-02-13T13:35:40.644Z,12.82
2023-02-13T13:36:40.635Z,12.67
2023-02-13T13:37:40.622Z,12.52
2023-02-13T13:38:40.625Z,12.41
2023-02-13T13:39:40.648Z,12.24
2023-02-13T13:40:40.596Z,12.14
2023-02-13T13:41:40.579Z,12.24
2023-02-13T13:42:40.570Z,12.10
2023-02-13T13:43:45.598Z,12.02
2023-02-13T13:44:40.551Z,12.02
2023-02-13T13:45:40.535Z,11.91
2023-02-13T13:46:40.529Z,11.72
2023-02-13T13:47:40.511Z,11.76
2023-02-13T13:48:40.561Z,11.75
2023-02-13T13:49:40.490Z,11.86
2023-02-13T13:50:40.501Z,11.79
2023-02-13T13:51:40.472Z,11.83
2023-02-13T13:52:40.456Z,11.86
2023-02-13T13:53:40.453Z,11.94
2023-02-13T13:54:45.500Z,11.91
2023-02-13T13:55:40.430Z,11.88
2023-02-13T13:56:40.412Z,11.79
2023-02-13T13:57:40.414Z,11.82
2023-02-13T13:58:40.397Z,11.91
2023-02-13T13:59:40.390Z,11.95
2023-02-13T14:00:40.368Z,11.94
2023-02-13T14:01:40.443Z,11.96
2023-02-13T14:02:40.503Z,11.86
2023-02-13T14:03:40.337Z,11.90
2023-02-13T14:04:40.339Z,11.91
2023-02-13T14:05:45.333Z,11.91
2023-02-13T14:06:40.303Z,11.91
2023-02-13T14:07:40.288Z,11.86
2023-02-13T14:08:40.277Z,11.90
2023-02-13T14:09:40.292Z,11.79
2023-02-13T14:10:40.297Z,11.79
2023-02-13T14:11:40.246Z,11.83
2023-02-13T14:12:40.233Z,11.76
2023-02-13T14:13:40.227Z,11.72
2023-02-13T14:14:40.207Z,11.75
2023-02-13T14:15:40.260Z,11.72
2023-02-13T14:16:45.217Z,11.69
2023-02-13T14:17:40.173Z,11.75
2023-02-13T14:18:40.269Z,11.67
2023-02-13T14:19:40.147Z,11.80
2023-02-13T14:20:40.156Z,11.79
2023-02-13T14:21:40.132Z,11.72
2023-02-13T14:22:40.128Z,11.70
2023-02-13T14:23:40.113Z,11.69
2023-02-13T14:24:40.091Z,11.65
2023-02-13T14:25:40.092Z,11.78
2023-02-13T14:26:40.155Z,11.72
2023-02-13T14:27:45.103Z,11.67
2023-02-13T14:28:40.050Z,11.62
2023-02-13T14:29:40.077Z,11.69
2023-02-13T14:30:40.362Z,11.70
2023-02-13T14:31:40.194Z,11.76
2023-02-13T14:32:40.005Z,11.65
2023-02-13T14:33:40.017Z,11.80
2023-02-13T14:34:39.995Z,11.83
2023-02-13T14:35:39.996Z,11.76
2023-02-13T14:36:39.970Z,11.78
2023-02-13T14:37:39.957Z,11.88
2023-02-13T14:38:44.955Z,11.85
2023-02-13T14:39:39.939Z,11.83
2023-02-13T14:40:39.964Z,11.85
2023-02-13T14:41:41.350Z,11.80
2023-02-13T14:42:39.916Z,11.76
2023-02-13T14:43:39.911Z,11.73
2023-02-13T14:44:39.976Z,11.80
2023-02-13T14:45:39.882Z,11.80
2023-02-13T14:46:39.989Z,11.85
2023-02-13T14:47:39.844Z,11.82
2023-02-13T14:48:39.832Z,11.86
2023-02-13T14:49:44.840Z,11.90
2023-02-13T14:50:39.802Z,11.90
2023-02-13T14:51:39.842Z,11.83
2023-02-13T14:52:39.787Z,11.82
2023-02-13T14:53:39.772Z,11.88
2023-02-13T14:54:39.760Z,11.88